North Easton, Massachusetts
Current Conditions -  °F | °C
As of 4:53 AM on Tuesday 27 Jan 2015 (Local Time) from KOWD Reporting Station
Heavy Snow Heavy Snow  
Wind Chill: -2°   Ceiling: 500
Heat Index: 15°   Visibility: 0.25mi
Dew Point: 11°   Wind: 21mph
Humidity: 84%   Direction: 360°N
Pressure: 29.59"   Gusts: 31mph
Location:  42.07°N, 71.1°W
Report Text: KOWD 270953Z AUTO 36018G27KT 1/4SM +SN FZFG VV005 M09/M12 A2959 RMK AO2 PK WND 36027/0952 SLP020 P0000 T10941117 $
Loading
Personal Weather Stations






























Interactive Weather Map New forecast layout! Learn more

10-Day Weather Forecast

Advertisements
Track Severe Weather on mobile